sensor_id;sensor_type;location;lat;lon;timestamp;P1;durP1;ratioP1;P2;durP2;ratioP2
54502;SDS011;40411;50.090;21.954;2023-07-31T00:02:16;9.23;;;4.20;;
54502;SDS011;40411;50.090;21.954;2023-07-31T00:04:42;8.75;;;4.85;;
54502;SDS011;40411;50.090;21.954;2023-07-31T00:07:07;9.10;;;4.85;;
54502;SDS011;40411;50.090;21.954;2023-07-31T00:09:33;13.02;;;4.53;;
54502;SDS011;40411;50.090;21.954;2023-07-31T00:11:59;7.18;;;4.50;;
54502;SDS011;40411;50.090;21.954;2023-07-31T00:14:25;11.80;;;5.38;;
54502;SDS011;40411;50.090;21.954;2023-07-31T00:16:51;8.52;;;4.50;;
54502;SDS011;40411;50.090;21.954;2023-07-31T00:19:17;8.00;;;5.28;;
54502;SDS011;40411;50.090;21.954;2023-07-31T00:21:43;13.35;;;5.32;;
54502;SDS011;40411;50.090;21.954;2023-07-31T00:24:10;8.77;;;5.50;;
54502;SDS011;40411;50.090;21.954;2023-07-31T00:26:36;9.23;;;5.22;;
54502;SDS011;40411;50.090;21.954;2023-07-31T00:29:01;13.00;;;5.13;;
54502;SDS011;40411;50.090;21.954;2023-07-31T00:31:27;13.75;;;5.50;;
54502;SDS011;40411;50.090;21.954;2023-07-31T00:33:54;9.68;;;5.72;;
54502;SDS011;40411;50.090;21.954;2023-07-31T00:36:20;9.63;;;5.50;;
54502;SDS011;40411;50.090;21.954;2023-07-31T00:38:45;11.18;;;4.97;;
54502;SDS011;40411;50.090;21.954;2023-07-31T00:41:11;8.52;;;4.72;;
54502;SDS011;40411;50.090;21.954;2023-07-31T00:43:37;8.73;;;4.65;;
54502;SDS011;40411;50.090;21.954;2023-07-31T00:46:03;10.23;;;5.28;;
54502;SDS011;40411;50.090;21.954;2023-07-31T00:48:30;10.07;;;6.05;;
54502;SDS011;40411;50.090;21.954;2023-07-31T00:50:57;13.63;;;5.82;;
54502;SDS011;40411;50.090;21.954;2023-07-31T00:53:24;9.57;;;5.70;;
54502;SDS011;40411;50.090;21.954;2023-07-31T00:55:50;8.43;;;5.03;;
54502;SDS011;40411;50.090;21.954;2023-07-31T00:58:18;12.02;;;5.65;;
54502;SDS011;40411;50.090;21.954;2023-07-31T01:00:44;11.52;;;6.03;;
54502;SDS011;40411;50.090;21.954;2023-07-31T01:03:09;12.23;;;5.07;;
54502;SDS011;40411;50.090;21.954;2023-07-31T01:11:52;12.48;;;4.90;;
54502;SDS011;40411;50.090;21.954;2023-07-31T01:14:21;10.50;;;4.80;;
54502;SDS011;40411;50.090;21.954;2023-07-31T01:16:47;9.95;;;4.47;;
54502;SDS011;40411;50.090;21.954;2023-07-31T01:19:14;7.65;;;4.75;;
54502;SDS011;40411;50.090;21.954;2023-07-31T01:21:46;9.63;;;5.80;;
54502;SDS011;40411;50.090;21.954;2023-07-31T01:27:21;12.95;;;5.80;;
54502;SDS011;40411;50.090;21.954;2023-07-31T01:29:59;10.43;;;6.03;;
54502;SDS011;40411;50.090;21.954;2023-07-31T01:32:29;10.90;;;5.60;;
54502;SDS011;40411;50.090;21.954;2023-07-31T01:34:56;10.10;;;6.18;;
54502;SDS011;40411;50.090;21.954;2023-07-31T01:37:33;8.23;;;4.95;;
54502;SDS011;40411;50.090;21.954;2023-07-31T01:39:58;8.77;;;5.43;;
54502;SDS011;40411;50.090;21.954;2023-07-31T01:42:24;10.90;;;6.35;;
54502;SDS011;40411;50.090;21.954;2023-07-31T01:44:50;11.30;;;6.05;;
54502;SDS011;40411;50.090;21.954;2023-07-31T01:47:16;14.95;;;6.43;;
54502;SDS011;40411;50.090;21.954;2023-07-31T01:49:42;10.45;;;6.15;;
54502;SDS011;40411;50.090;21.954;2023-07-31T01:52:08;11.38;;;6.28;;
54502;SDS011;40411;50.090;21.954;2023-07-31T01:54:33;10.40;;;6.22;;
54502;SDS011;40411;50.090;21.954;2023-07-31T01:56:59;12.38;;;5.82;;
54502;SDS011;40411;50.090;21.954;2023-07-31T01:59:25;11.45;;;6.10;;
54502;SDS011;40411;50.090;21.954;2023-07-31T02:01:51;11.40;;;6.10;;
54502;SDS011;40411;50.090;21.954;2023-07-31T02:04:16;12.02;;;5.93;;
54502;SDS011;40411;50.090;21.954;2023-07-31T02:06:43;11.13;;;6.50;;
54502;SDS011;40411;50.090;21.954;2023-07-31T02:09:09;12.88;;;6.53;;
54502;SDS011;40411;50.090;21.954;2023-07-31T02:11:35;10.93;;;7.00;;
54502;SDS011;40411;50.090;21.954;2023-07-31T02:14:01;12.95;;;7.35;;
54502;SDS011;40411;50.090;21.954;2023-07-31T02:16:27;10.82;;;6.72;;
54502;SDS011;40411;50.090;21.954;2023-07-31T02:18:53;15.60;;;5.90;;
54502;SDS011;40411;50.090;21.954;2023-07-31T02:21:19;12.50;;;6.20;;
54502;SDS011;40411;50.090;21.954;2023-07-31T02:23:44;14.93;;;6.72;;
54502;SDS011;40411;50.090;21.954;2023-07-31T02:26:10;14.35;;;6.22;;
54502;SDS011;40411;50.090;21.954;2023-07-31T02:28:36;12.13;;;5.80;;
54502;SDS011;40411;50.090;21.954;2023-07-31T02:31:02;10.32;;;6.30;;
54502;SDS011;40411;50.090;21.954;2023-07-31T02:33:28;10.52;;;6.10;;
54502;SDS011;40411;50.090;21.954;2023-07-31T02:35:54;9.85;;;5.78;;
54502;SDS011;40411;50.090;21.954;2023-07-31T02:38:21;11.20;;;5.70;;
54502;SDS011;40411;50.090;21.954;2023-07-31T02:40:47;10.60;;;6.32;;
54502;SDS011;40411;50.090;21.954;2023-07-31T02:43:13;14.25;;;6.47;;
54502;SDS011;40411;50.090;21.954;2023-07-31T02:45:39;13.75;;;6.93;;
54502;SDS011;40411;50.090;21.954;2023-07-31T02:48:05;12.25;;;6.10;;
54502;SDS011;40411;50.090;21.954;2023-07-31T02:50:31;10.43;;;6.30;;
54502;SDS011;40411;50.090;21.954;2023-07-31T02:52:58;11.65;;;6.47;;
54502;SDS011;40411;50.090;21.954;2023-07-31T02:55:24;16.85;;;8.02;;
54502;SDS011;40411;50.090;21.954;2023-07-31T02:57:50;11.35;;;6.63;;
54502;SDS011;40411;50.090;21.954;2023-07-31T03:00:17;11.80;;;6.85;;
54502;SDS011;40411;50.090;21.954;2023-07-31T03:02:43;11.35;;;6.97;;
54502;SDS011;40411;50.090;21.954;2023-07-31T03:05:09;14.05;;;7.07;;
54502;SDS011;40411;50.090;21.954;2023-07-31T03:07:35;11.57;;;6.38;;
54502;SDS011;40411;50.090;21.954;2023-07-31T03:10:01;15.98;;;6.93;;
54502;SDS011;40411;50.090;21.954;2023-07-31T03:12:27;12.80;;;6.45;;
54502;SDS011;40411;50.090;21.954;2023-07-31T03:14:53;15.05;;;6.30;;
54502;SDS011;40411;50.090;21.954;2023-07-31T03:17:19;11.60;;;6.25;;
54502;SDS011;40411;50.090;21.954;2023-07-31T03:19:45;11.65;;;6.63;;
54502;SDS011;40411;50.090;21.954;2023-07-31T03:22:10;10.00;;;6.20;;
54502;SDS011;40411;50.090;21.954;2023-07-31T03:24:36;12.95;;;6.28;;
54502;SDS011;40411;50.090;21.954;2023-07-31T03:27:02;10.18;;;6.13;;
54502;SDS011;40411;50.090;21.954;2023-07-31T03:29:28;10.40;;;6.65;;
54502;SDS011;40411;50.090;21.954;2023-07-31T03:31:54;11.35;;;6.10;;
54502;SDS011;40411;50.090;21.954;2023-07-31T03:34:20;11.25;;;6.32;;
54502;SDS011;40411;50.090;21.954;2023-07-31T03:36:45;11.13;;;5.38;;
54502;SDS011;40411;50.090;21.954;2023-07-31T03:39:11;11.82;;;6.10;;
54502;SDS011;40411;50.090;21.954;2023-07-31T03:41:37;10.30;;;6.07;;
54502;SDS011;40411;50.090;21.954;2023-07-31T03:44:03;11.02;;;6.28;;
54502;SDS011;40411;50.090;21.954;2023-07-31T03:46:30;10.07;;;5.22;;
54502;SDS011;40411;50.090;21.954;2023-07-31T03:48:56;11.07;;;6.40;;
54502;SDS011;40411;50.090;21.954;2023-07-31T03:51:22;13.70;;;5.78;;
54502;SDS011;40411;50.090;21.954;2023-07-31T03:53:48;11.57;;;6.03;;
54502;SDS011;40411;50.090;21.954;2023-07-31T03:56:13;9.98;;;6.28;;
54502;SDS011;40411;50.090;21.954;2023-07-31T03:58:39;13.52;;;7.43;;
54502;SDS011;40411;50.090;21.954;2023-07-31T04:01:05;10.45;;;5.95;;
54502;SDS011;40411;50.090;21.954;2023-07-31T04:03:31;10.57;;;6.13;;
54502;SDS011;40411;50.090;21.954;2023-07-31T04:05:57;10.93;;;6.43;;
54502;SDS011;40411;50.090;21.954;2023-07-31T04:08:23;12.32;;;5.80;;
54502;SDS011;40411;50.090;21.954;2023-07-31T04:10:48;11.38;;;5.65;;
54502;SDS011;40411;50.090;21.954;2023-07-31T04:13:16;9.50;;;5.65;;
54502;SDS011;40411;50.090;21.954;2023-07-31T04:15:42;9.68;;;5.53;;
54502;SDS011;40411;50.090;21.954;2023-07-31T04:18:08;11.23;;;5.55;;
54502;SDS011;40411;50.090;21.954;2023-07-31T04:20:33;10.55;;;5.93;;
54502;SDS011;40411;50.090;21.954;2023-07-31T04:22:59;9.20;;;5.85;;
54502;SDS011;40411;50.090;21.954;2023-07-31T04:25:25;8.32;;;4.85;;
54502;SDS011;40411;50.090;21.954;2023-07-31T04:27:51;9.10;;;4.50;;
54502;SDS011;40411;50.090;21.954;2023-07-31T04:30:17;10.30;;;4.72;;
54502;SDS011;40411;50.090;21.954;2023-07-31T04:32:43;9.25;;;4.75;;
54502;SDS011;40411;50.090;21.954;2023-07-31T04:35:08;6.88;;;4.13;;
54502;SDS011;40411;50.090;21.954;2023-07-31T04:37:34;8.05;;;4.13;;
54502;SDS011;40411;50.090;21.954;2023-07-31T04:40:00;8.05;;;4.00;;
54502;SDS011;40411;50.090;21.954;2023-07-31T04:42:26;12.00;;;4.78;;
54502;SDS011;40411;50.090;21.954;2023-07-31T04:44:51;11.30;;;4.05;;
54502;SDS011;40411;50.090;21.954;2023-07-31T04:47:19;8.68;;;3.92;;
54502;SDS011;40411;50.090;21.954;2023-07-31T04:49:44;7.53;;;3.28;;
54502;SDS011;40411;50.090;21.954;2023-07-31T04:52:10;8.77;;;4.00;;
54502;SDS011;40411;50.090;21.954;2023-07-31T04:54:36;9.85;;;3.95;;
54502;SDS011;40411;50.090;21.954;2023-07-31T04:57:02;7.72;;;3.30;;
54502;SDS011;40411;50.090;21.954;2023-07-31T04:59:28;8.73;;;3.92;;
54502;SDS011;40411;50.090;21.954;2023-07-31T05:01:54;8.55;;;3.65;;
54502;SDS011;40411;50.090;21.954;2023-07-31T05:04:19;6.93;;;3.13;;
54502;SDS011;40411;50.090;21.954;2023-07-31T05:06:45;15.63;;;3.50;;
54502;SDS011;40411;50.090;21.954;2023-07-31T05:09:11;7.03;;;3.45;;
54502;SDS011;40411;50.090;21.954;2023-07-31T05:11:37;8.73;;;3.33;;
54502;SDS011;40411;50.090;21.954;2023-07-31T05:14:03;12.43;;;3.30;;
54502;SDS011;40411;50.090;21.954;2023-07-31T05:16:29;6.35;;;3.28;;
54502;SDS011;40411;50.090;21.954;2023-07-31T05:18:54;11.80;;;3.67;;
54502;SDS011;40411;50.090;21.954;2023-07-31T05:21:20;9.00;;;3.60;;
54502;SDS011;40411;50.090;21.954;2023-07-31T05:23:46;6.80;;;3.30;;
54502;SDS011;40411;50.090;21.954;2023-07-31T05:26:13;6.93;;;3.40;;
54502;SDS011;40411;50.090;21.954;2023-07-31T05:28:39;7.88;;;3.53;;
54502;SDS011;40411;50.090;21.954;2023-07-31T05:31:05;10.38;;;3.63;;
54502;SDS011;40411;50.090;21.954;2023-07-31T05:33:32;6.38;;;3.45;;
54502;SDS011;40411;50.090;21.954;2023-07-31T05:35:58;15.15;;;3.45;;
54502;SDS011;40411;50.090;21.954;2023-07-31T05:38:24;6.22;;;2.83;;
54502;SDS011;40411;50.090;21.954;2023-07-31T05:40:50;6.88;;;2.85;;
54502;SDS011;40411;50.090;21.954;2023-07-31T05:43:16;7.40;;;3.47;;
54502;SDS011;40411;50.090;21.954;2023-07-31T05:45:42;8.68;;;3.20;;
54502;SDS011;40411;50.090;21.954;2023-07-31T05:48:08;6.97;;;2.70;;
54502;SDS011;40411;50.090;21.954;2023-07-31T05:50:34;5.53;;;3.00;;
54502;SDS011;40411;50.090;21.954;2023-07-31T05:53:00;6.00;;;3.05;;
54502;SDS011;40411;50.090;21.954;2023-07-31T05:55:26;5.15;;;2.33;;
54502;SDS011;40411;50.090;21.954;2023-07-31T05:57:54;8.55;;;3.20;;
54502;SDS011;40411;50.090;21.954;2023-07-31T06:00:20;6.43;;;3.45;;
54502;SDS011;40411;50.090;21.954;2023-07-31T06:02:47;9.20;;;3.25;;
54502;SDS011;40411;50.090;21.954;2023-07-31T06:05:13;5.60;;;2.80;;
54502;SDS011;40411;50.090;21.954;2023-07-31T06:07:39;10.93;;;3.40;;
54502;SDS011;40411;50.090;21.954;2023-07-31T06:10:05;5.90;;;2.88;;
54502;SDS011;40411;50.090;21.954;2023-07-31T06:12:34;5.55;;;2.97;;
54502;SDS011;40411;50.090;21.954;2023-07-31T06:15:01;8.30;;;2.95;;
54502;SDS011;40411;50.090;21.954;2023-07-31T06:17:28;6.18;;;2.88;;
54502;SDS011;40411;50.090;21.954;2023-07-31T06:19:56;7.20;;;2.80;;
54502;SDS011;40411;50.090;21.954;2023-07-31T06:22:22;7.35;;;2.63;;
54502;SDS011;40411;50.090;21.954;2023-07-31T06:24:48;11.65;;;2.97;;
54502;SDS011;40411;50.090;21.954;2023-07-31T06:27:14;7.43;;;3.03;;
54502;SDS011;40411;50.090;21.954;2023-07-31T06:29:40;9.10;;;2.80;;
54502;SDS011;40411;50.090;21.954;2023-07-31T06:32:06;9.77;;;3.40;;
54502;SDS011;40411;50.090;21.954;2023-07-31T06:34:32;8.40;;;3.00;;
54502;SDS011;40411;50.090;21.954;2023-07-31T06:36:58;6.13;;;3.08;;
54502;SDS011;40411;50.090;21.954;2023-07-31T06:39:24;7.00;;;3.13;;
54502;SDS011;40411;50.090;21.954;2023-07-31T06:41:50;6.10;;;2.85;;
54502;SDS011;40411;50.090;21.954;2023-07-31T06:44:16;8.85;;;3.10;;
54502;SDS011;40411;50.090;21.954;2023-07-31T06:46:42;11.18;;;3.25;;
54502;SDS011;40411;50.090;21.954;2023-07-31T06:49:08;5.93;;;2.80;;
54502;SDS011;40411;50.090;21.954;2023-07-31T06:51:34;5.63;;;3.13;;
54502;SDS011;40411;50.090;21.954;2023-07-31T06:54:01;9.23;;;3.10;;
54502;SDS011;40411;50.090;21.954;2023-07-31T06:56:27;6.28;;;2.97;;
54502;SDS011;40411;50.090;21.954;2023-07-31T06:58:53;7.03;;;3.15;;
54502;SDS011;40411;50.090;21.954;2023-07-31T07:01:18;5.95;;;2.58;;
54502;SDS011;40411;50.090;21.954;2023-07-31T07:03:44;9.93;;;3.10;;
54502;SDS011;40411;50.090;21.954;2023-07-31T07:06:10;9.88;;;4.00;;
54502;SDS011;40411;50.090;21.954;2023-07-31T07:08:36;7.25;;;3.50;;
54502;SDS011;40411;50.090;21.954;2023-07-31T07:11:02;9.55;;;3.17;;
54502;SDS011;40411;50.090;21.954;2023-07-31T07:13:28;7.72;;;3.60;;
54502;SDS011;40411;50.090;21.954;2023-07-31T07:15:53;6.22;;;3.30;;
54502;SDS011;40411;50.090;21.954;2023-07-31T07:18:19;6.60;;;3.13;;
54502;SDS011;40411;50.090;21.954;2023-07-31T07:20:47;8.93;;;3.13;;
54502;SDS011;40411;50.090;21.954;2023-07-31T07:23:15;8.20;;;3.00;;
54502;SDS011;40411;50.090;21.954;2023-07-31T07:25:41;6.68;;;3.10;;
54502;SDS011;40411;50.090;21.954;2023-07-31T07:28:09;6.07;;;2.90;;
54502;SDS011;40411;50.090;21.954;2023-07-31T07:30:35;6.82;;;3.10;;
54502;SDS011;40411;50.090;21.954;2023-07-31T07:33:01;5.50;;;2.78;;
54502;SDS011;40411;50.090;21.954;2023-07-31T07:35:27;6.10;;;3.15;;
54502;SDS011;40411;50.090;21.954;2023-07-31T07:37:53;5.43;;;2.67;;
54502;SDS011;40411;50.090;21.954;2023-07-31T07:40:19;5.60;;;2.75;;
54502;SDS011;40411;50.090;21.954;2023-07-31T07:42:46;6.82;;;2.65;;
54502;SDS011;40411;50.090;21.954;2023-07-31T07:45:12;6.47;;;2.55;;
54502;SDS011;40411;50.090;21.954;2023-07-31T07:47:40;6.68;;;3.05;;
54502;SDS011;40411;50.090;21.954;2023-07-31T07:50:06;6.20;;;3.05;;
54502;SDS011;40411;50.090;21.954;2023-07-31T07:52:32;6.20;;;2.38;;
54502;SDS011;40411;50.090;21.954;2023-07-31T07:54:58;6.03;;;2.83;;
54502;SDS011;40411;50.090;21.954;2023-07-31T07:57:26;5.53;;;2.60;;
54502;SDS011;40411;50.090;21.954;2023-07-31T07:59:52;7.30;;;2.30;;
54502;SDS011;40411;50.090;21.954;2023-07-31T08:02:18;6.35;;;2.10;;
54502;SDS011;40411;50.090;21.954;2023-07-31T10:21:09;8.68;;;3.65;;
54502;SDS011;40411;50.090;21.954;2023-07-31T10:23:37;6.40;;;3.80;;
54502;SDS011;40411;50.090;21.954;2023-07-31T10:26:04;8.30;;;3.13;;
54502;SDS011;40411;50.090;21.954;2023-07-31T10:28:33;5.30;;;2.95;;
54502;SDS011;40411;50.090;21.954;2023-07-31T10:31:02;6.07;;;3.00;;
54502;SDS011;40411;50.090;21.954;2023-07-31T10:33:29;6.60;;;3.33;;
54502;SDS011;40411;50.090;21.954;2023-07-31T10:38:43;7.50;;;3.35;;
54502;SDS011;40411;50.090;21.954;2023-07-31T10:41:09;13.57;;;3.90;;
54502;SDS011;40411;50.090;21.954;2023-07-31T10:43:36;9.57;;;3.50;;
54502;SDS011;40411;50.090;21.954;2023-07-31T10:46:06;7.75;;;3.78;;
54502;SDS011;40411;50.090;21.954;2023-07-31T10:48:37;14.43;;;3.65;;
54502;SDS011;40411;50.090;21.954;2023-07-31T10:51:10;5.72;;;3.30;;
54502;SDS011;40411;50.090;21.954;2023-07-31T10:53:38;6.63;;;3.72;;
54502;SDS011;40411;50.090;21.954;2023-07-31T10:56:08;6.10;;;3.10;;
54502;SDS011;40411;50.090;21.954;2023-07-31T10:58:36;7.25;;;3.28;;
54502;SDS011;40411;50.090;21.954;2023-07-31T11:01:03;5.90;;;3.28;;
54502;SDS011;40411;50.090;21.954;2023-07-31T11:03:46;7.07;;;3.60;;
54502;SDS011;40411;50.090;21.954;2023-07-31T11:06:12;7.45;;;3.20;;
54502;SDS011;40411;50.090;21.954;2023-07-31T11:08:46;9.85;;;3.38;;
54502;SDS011;40411;50.090;21.954;2023-07-31T11:11:14;4.75;;;2.50;;
54502;SDS011;40411;50.090;21.954;2023-07-31T11:13:45;5.95;;;2.88;;
54502;SDS011;40411;50.090;21.954;2023-07-31T11:16:15;10.52;;;2.65;;
54502;SDS011;40411;50.090;21.954;2023-07-31T11:18:45;4.72;;;2.50;;
54502;SDS011;40411;50.090;21.954;2023-07-31T11:21:13;6.30;;;2.53;;
54502;SDS011;40411;50.090;21.954;2023-07-31T11:23:40;11.60;;;2.50;;
54502;SDS011;40411;50.090;21.954;2023-07-31T11:26:10;4.80;;;2.47;;
54502;SDS011;40411;50.090;21.954;2023-07-31T11:28:37;4.80;;;2.38;;
54502;SDS011;40411;50.090;21.954;2023-07-31T11:31:03;4.90;;;2.60;;
54502;SDS011;40411;50.090;21.954;2023-07-31T11:33:30;4.70;;;2.40;;
54502;SDS011;40411;50.090;21.954;2023-07-31T11:35:56;8.95;;;2.45;;
54502;SDS011;40411;50.090;21.954;2023-07-31T11:38:23;4.07;;;2.30;;
54502;SDS011;40411;50.090;21.954;2023-07-31T11:40:51;5.95;;;2.60;;
54502;SDS011;40411;50.090;21.954;2023-07-31T11:43:22;6.93;;;2.67;;
54502;SDS011;40411;50.090;21.954;2023-07-31T11:45:50;6.07;;;2.58;;
54502;SDS011;40411;50.090;21.954;2023-07-31T11:48:21;9.48;;;2.47;;
54502;SDS011;40411;50.090;21.954;2023-07-31T11:50:49;5.80;;;2.63;;
54502;SDS011;40411;50.090;21.954;2023-07-31T11:53:17;6.10;;;2.38;;
54502;SDS011;40411;50.090;21.954;2023-07-31T11:55:47;4.63;;;2.25;;
54502;SDS011;40411;50.090;21.954;2023-07-31T11:58:14;5.38;;;2.40;;
54502;SDS011;40411;50.090;21.954;2023-07-31T12:00:43;6.43;;;2.20;;
54502;SDS011;40411;50.090;21.954;2023-07-31T12:03:10;5.60;;;2.58;;
54502;SDS011;40411;50.090;21.954;2023-07-31T12:05:37;5.43;;;2.28;;
54502;SDS011;40411;50.090;21.954;2023-07-31T12:08:11;6.53;;;2.17;;
54502;SDS011;40411;50.090;21.954;2023-07-31T12:10:38;4.47;;;2.35;;
54502;SDS011;40411;50.090;21.954;2023-07-31T12:13:07;4.82;;;2.38;;
54502;SDS011;40411;50.090;21.954;2023-07-31T12:15:41;20.10;;;6.03;;
54502;SDS011;40411;50.090;21.954;2023-07-31T12:18:10;14.13;;;5.63;;
54502;SDS011;40411;50.090;21.954;2023-07-31T12:20:41;4.20;;;2.35;;
54502;SDS011;40411;50.090;21.954;2023-07-31T12:23:18;5.03;;;2.50;;
54502;SDS011;40411;50.090;21.954;2023-07-31T12:25:44;6.43;;;2.97;;
54502;SDS011;40411;50.090;21.954;2023-07-31T12:28:13;5.88;;;2.55;;
54502;SDS011;40411;50.090;21.954;2023-07-31T12:30:39;5.63;;;2.60;;
54502;SDS011;40411;50.090;21.954;2023-07-31T12:33:15;6.78;;;2.60;;
54502;SDS011;40411;50.090;21.954;2023-07-31T12:35:43;7.38;;;2.70;;
54502;SDS011;40411;50.090;21.954;2023-07-31T12:38:11;5.35;;;2.42;;
54502;SDS011;40411;50.090;21.954;2023-07-31T12:40:38;8.85;;;2.90;;
54502;SDS011;40411;50.090;21.954;2023-07-31T12:43:06;5.65;;;2.67;;
54502;SDS011;40411;50.090;21.954;2023-07-31T12:45:33;5.85;;;2.60;;
54502;SDS011;40411;50.090;21.954;2023-07-31T12:47:59;6.03;;;2.67;;
54502;SDS011;40411;50.090;21.954;2023-07-31T12:50:25;6.10;;;2.80;;
54502;SDS011;40411;50.090;21.954;2023-07-31T12:52:55;5.38;;;2.70;;
54502;SDS011;40411;50.090;21.954;2023-07-31T12:55:22;6.38;;;2.60;;
54502;SDS011;40411;50.090;21.954;2023-07-31T12:57:49;7.82;;;3.05;;
54502;SDS011;40411;50.090;21.954;2023-07-31T13:00:15;7.15;;;2.88;;
54502;SDS011;40411;50.090;21.954;2023-07-31T13:02:42;10.38;;;4.28;;
54502;SDS011;40411;50.090;21.954;2023-07-31T13:05:08;12.18;;;6.57;;
54502;SDS011;40411;50.090;21.954;2023-07-31T13:07:34;7.68;;;2.80;;
54502;SDS011;40411;50.090;21.954;2023-07-31T13:10:00;6.38;;;2.30;;
54502;SDS011;40411;50.090;21.954;2023-07-31T13:12:26;4.82;;;2.47;;
54502;SDS011;40411;50.090;21.954;2023-07-31T13:14:52;5.35;;;2.40;;
54502;SDS011;40411;50.090;21.954;2023-07-31T13:17:18;10.82;;;2.50;;
54502;SDS011;40411;50.090;21.954;2023-07-31T13:19:44;5.82;;;2.58;;
54502;SDS011;40411;50.090;21.954;2023-07-31T13:22:10;12.15;;;4.20;;
54502;SDS011;40411;50.090;21.954;2023-07-31T13:24:36;5.00;;;2.35;;
54502;SDS011;40411;50.090;21.954;2023-07-31T13:27:02;4.13;;;1.88;;
54502;SDS011;40411;50.090;21.954;2023-07-31T13:29:28;4.88;;;1.80;;
54502;SDS011;40411;50.090;21.954;2023-07-31T13:31:55;3.80;;;1.80;;
54502;SDS011;40411;50.090;21.954;2023-07-31T13:34:21;3.28;;;1.60;;
54502;SDS011;40411;50.090;21.954;2023-07-31T13:36:47;5.32;;;1.73;;
54502;SDS011;40411;50.090;21.954;2023-07-31T13:39:13;4.28;;;1.80;;
54502;SDS011;40411;50.090;21.954;2023-07-31T13:41:39;7.07;;;2.50;;
54502;SDS011;40411;50.090;21.954;2023-07-31T13:44:05;5.10;;;2.40;;
54502;SDS011;40411;50.090;21.954;2023-07-31T13:46:31;4.32;;;1.75;;
54502;SDS011;40411;50.090;21.954;2023-07-31T13:48:58;4.80;;;1.80;;
54502;SDS011;40411;50.090;21.954;2023-07-31T13:51:25;4.25;;;1.85;;
54502;SDS011;40411;50.090;21.954;2023-07-31T13:53:52;5.28;;;1.65;;
54502;SDS011;40411;50.090;21.954;2023-07-31T13:56:19;8.55;;;1.80;;
54502;SDS011;40411;50.090;21.954;2023-07-31T13:58:44;4.57;;;1.90;;
54502;SDS011;40411;50.090;21.954;2023-07-31T14:01:10;4.18;;;1.55;;
54502;SDS011;40411;50.090;21.954;2023-07-31T14:03:39;5.22;;;2.15;;
54502;SDS011;40411;50.090;21.954;2023-07-31T14:06:05;8.68;;;2.35;;
54502;SDS011;40411;50.090;21.954;2023-07-31T14:08:31;5.50;;;2.00;;
54502;SDS011;40411;50.090;21.954;2023-07-31T14:10:57;7.35;;;3.17;;
54502;SDS011;40411;50.090;21.954;2023-07-31T14:13:23;7.65;;;2.00;;
54502;SDS011;40411;50.090;21.954;2023-07-31T14:15:49;4.57;;;1.98;;
54502;SDS011;40411;50.090;21.954;2023-07-31T14:18:15;4.65;;;1.85;;
54502;SDS011;40411;50.090;21.954;2023-07-31T14:20:41;6.53;;;2.08;;
54502;SDS011;40411;50.090;21.954;2023-07-31T14:23:07;4.40;;;2.00;;
54502;SDS011;40411;50.090;21.954;2023-07-31T14:25:33;4.20;;;1.98;;
54502;SDS011;40411;50.090;21.954;2023-07-31T14:27:59;11.50;;;2.00;;
54502;SDS011;40411;50.090;21.954;2023-07-31T14:30:25;5.00;;;2.08;;
54502;SDS011;40411;50.090;21.954;2023-07-31T14:32:50;4.63;;;1.83;;
54502;SDS011;40411;50.090;21.954;2023-07-31T14:35:16;6.60;;;2.00;;
54502;SDS011;40411;50.090;21.954;2023-07-31T14:37:42;5.50;;;2.30;;
54502;SDS011;40411;50.090;21.954;2023-07-31T14:40:10;8.05;;;2.58;;
54502;SDS011;40411;50.090;21.954;2023-07-31T14:42:37;6.78;;;2.70;;
54502;SDS011;40411;50.090;21.954;2023-07-31T14:45:04;4.55;;;1.83;;
54502;SDS011;40411;50.090;21.954;2023-07-31T14:47:31;5.32;;;2.22;;
54502;SDS011;40411;50.090;21.954;2023-07-31T14:49:58;4.90;;;2.15;;
54502;SDS011;40411;50.090;21.954;2023-07-31T14:52:24;5.82;;;1.80;;
54502;SDS011;40411;50.090;21.954;2023-07-31T14:54:50;5.90;;;2.22;;
54502;SDS011;40411;50.090;21.954;2023-07-31T14:57:16;4.80;;;2.15;;
54502;SDS011;40411;50.090;21.954;2023-07-31T14:59:42;6.53;;;2.40;;
54502;SDS011;40411;50.090;21.954;2023-07-31T15:02:10;6.00;;;2.30;;
54502;SDS011;40411;50.090;21.954;2023-07-31T15:04:37;6.18;;;2.30;;
54502;SDS011;40411;50.090;21.954;2023-07-31T15:07:03;6.47;;;2.70;;
54502;SDS011;40411;50.090;21.954;2023-07-31T15:09:29;7.03;;;2.15;;
54502;SDS011;40411;50.090;21.954;2023-07-31T15:11:56;4.43;;;2.17;;
54502;SDS011;40411;50.090;21.954;2023-07-31T15:14:23;4.70;;;2.17;;
54502;SDS011;40411;50.090;21.954;2023-07-31T15:16:48;5.72;;;2.25;;
54502;SDS011;40411;50.090;21.954;2023-07-31T15:19:15;4.72;;;1.98;;
54502;SDS011;40411;50.090;21.954;2023-07-31T15:21:41;5.63;;;2.22;;
54502;SDS011;40411;50.090;21.954;2023-07-31T15:24:07;6.57;;;2.25;;
54502;SDS011;40411;50.090;21.954;2023-07-31T15:26:33;5.50;;;2.40;;
54502;SDS011;40411;50.090;21.954;2023-07-31T15:29:03;4.78;;;2.30;;
54502;SDS011;40411;50.090;21.954;2023-07-31T15:31:34;8.18;;;2.28;;
54502;SDS011;40411;50.090;21.954;2023-07-31T15:34:01;6.78;;;2.30;;
54502;SDS011;40411;50.090;21.954;2023-07-31T15:36:26;5.05;;;2.10;;
54502;SDS011;40411;50.090;21.954;2023-07-31T15:38:52;7.50;;;2.38;;
54502;SDS011;40411;50.090;21.954;2023-07-31T15:41:18;7.30;;;2.50;;
54502;SDS011;40411;50.090;21.954;2023-07-31T15:43:44;5.10;;;2.58;;
54502;SDS011;40411;50.090;21.954;2023-07-31T15:46:11;6.05;;;2.30;;
54502;SDS011;40411;50.090;21.954;2023-07-31T15:48:37;4.32;;;2.00;;
54502;SDS011;40411;50.090;21.954;2023-07-31T15:51:03;4.78;;;2.47;;
54502;SDS011;40411;50.090;21.954;2023-07-31T15:53:29;7.68;;;2.58;;
54502;SDS011;40411;50.090;21.954;2023-07-31T15:55:56;6.13;;;1.90;;
54502;SDS011;40411;50.090;21.954;2023-07-31T15:58:22;5.07;;;2.10;;
54502;SDS011;40411;50.090;21.954;2023-07-31T16:00:48;5.60;;;2.70;;
54502;SDS011;40411;50.090;21.954;2023-07-31T16:03:14;5.65;;;2.40;;
54502;SDS011;40411;50.090;21.954;2023-07-31T16:05:40;7.50;;;2.30;;
54502;SDS011;40411;50.090;21.954;2023-07-31T16:08:07;6.68;;;2.00;;
54502;SDS011;40411;50.090;21.954;2023-07-31T16:10:33;5.18;;;2.10;;
54502;SDS011;40411;50.090;21.954;2023-07-31T16:12:59;8.23;;;2.22;;
54502;SDS011;40411;50.090;21.954;2023-07-31T16:15:25;5.38;;;2.33;;
54502;SDS011;40411;50.090;21.954;2023-07-31T16:17:51;6.22;;;2.35;;
54502;SDS011;40411;50.090;21.954;2023-07-31T16:20:17;6.07;;;1.90;;
54502;SDS011;40411;50.090;21.954;2023-07-31T16:22:43;6.85;;;2.38;;
54502;SDS011;40411;50.090;21.954;2023-07-31T16:25:12;3.97;;;1.77;;
54502;SDS011;40411;50.090;21.954;2023-07-31T16:27:38;8.10;;;2.03;;
54502;SDS011;40411;50.090;21.954;2023-07-31T16:30:04;7.60;;;2.20;;
54502;SDS011;40411;50.090;21.954;2023-07-31T16:32:30;6.13;;;2.20;;
54502;SDS011;40411;50.090;21.954;2023-07-31T16:34:56;6.85;;;2.40;;
54502;SDS011;40411;50.090;21.954;2023-07-31T16:37:22;10.07;;;2.67;;
54502;SDS011;40411;50.090;21.954;2023-07-31T16:39:48;4.43;;;2.05;;
54502;SDS011;40411;50.090;21.954;2023-07-31T16:42:17;7.28;;;2.38;;
54502;SDS011;40411;50.090;21.954;2023-07-31T16:44:43;5.97;;;2.05;;
54502;SDS011;40411;50.090;21.954;2023-07-31T16:47:09;6.38;;;2.10;;
54502;SDS011;40411;50.090;21.954;2023-07-31T16:49:35;5.57;;;2.30;;
54502;SDS011;40411;50.090;21.954;2023-07-31T16:52:01;7.55;;;2.40;;
54502;SDS011;40411;50.090;21.954;2023-07-31T16:54:27;6.43;;;2.30;;
54502;SDS011;40411;50.090;21.954;2023-07-31T16:56:53;8.35;;;2.42;;